sensor_id;sensor_type;location;lat;lon;timestamp;P1;durP1;ratioP1;P2;durP2;ratioP2
62543;SDS011;48597;49.030;1.822;2022-11-03T00:02:22;2.30;;;1.10;;
62543;SDS011;48597;49.030;1.822;2022-11-03T00:04:47;2.83;;;1.38;;
62543;SDS011;48597;49.030;1.822;2022-11-03T00:07:18;3.03;;;1.20;;
62543;SDS011;48597;49.030;1.822;2022-11-03T00:09:45;3.35;;;1.30;;
62543;SDS011;48597;49.030;1.822;2022-11-03T00:12:10;1.55;;;1.20;;
62543;SDS011;48597;49.030;1.822;2022-11-03T00:14:36;2.03;;;1.10;;
62543;SDS011;48597;49.030;1.822;2022-11-03T00:17:01;3.67;;;1.50;;
62543;SDS011;48597;49.030;1.822;2022-11-03T00:19:26;2.20;;;1.30;;
62543;SDS011;48597;49.030;1.822;2022-11-03T00:21:52;2.65;;;1.58;;
62543;SDS011;48597;49.030;1.822;2022-11-03T00:24:17;2.72;;;1.20;;
62543;SDS011;48597;49.030;1.822;2022-11-03T00:26:42;2.05;;;1.13;;
62543;SDS011;48597;49.030;1.822;2022-11-03T00:29:09;3.22;;;1.30;;
62543;SDS011;48597;49.030;1.822;2022-11-03T00:31:39;3.38;;;1.30;;
62543;SDS011;48597;49.030;1.822;2022-11-03T00:34:05;2.55;;;1.30;;
62543;SDS011;48597;49.030;1.822;2022-11-03T00:36:33;2.17;;;1.40;;
62543;SDS011;48597;49.030;1.822;2022-11-03T00:39:00;2.65;;;1.30;;
62543;SDS011;48597;49.030;1.822;2022-11-03T00:41:26;1.88;;;1.17;;
62543;SDS011;48597;49.030;1.822;2022-11-03T00:43:52;2.72;;;1.10;;
62543;SDS011;48597;49.030;1.822;2022-11-03T00:46:18;2.50;;;1.20;;
62543;SDS011;48597;49.030;1.822;2022-11-03T00:48:44;2.50;;;1.38;;
62543;SDS011;48597;49.030;1.822;2022-11-03T00:53:47;1.80;;;1.30;;
62543;SDS011;48597;49.030;1.822;2022-11-03T00:56:16;3.40;;;1.38;;
62543;SDS011;48597;49.030;1.822;2022-11-03T00:58:43;1.95;;;1.23;;
62543;SDS011;48597;49.030;1.822;2022-11-03T01:01:10;1.90;;;1.00;;
62543;SDS011;48597;49.030;1.822;2022-11-03T01:03:38;1.55;;;1.10;;
62543;SDS011;48597;49.030;1.822;2022-11-03T01:06:05;3.17;;;1.13;;
62543;SDS011;48597;49.030;1.822;2022-11-03T01:08:51;2.28;;;1.25;;
62543;SDS011;48597;49.030;1.822;2022-11-03T01:11:18;3.53;;;1.25;;
62543;SDS011;48597;49.030;1.822;2022-11-03T01:14:04;3.08;;;1.33;;
62543;SDS011;48597;49.030;1.822;2022-11-03T01:16:30;2.60;;;1.27;;
62543;SDS011;48597;49.030;1.822;2022-11-03T01:18:56;2.10;;;1.20;;
62543;SDS011;48597;49.030;1.822;2022-11-03T01:21:22;3.17;;;1.20;;
62543;SDS011;48597;49.030;1.822;2022-11-03T01:23:48;1.95;;;1.17;;
62543;SDS011;48597;49.030;1.822;2022-11-03T01:26:13;2.35;;;1.27;;
62543;SDS011;48597;49.030;1.822;2022-11-03T01:28:40;2.50;;;1.35;;
62543;SDS011;48597;49.030;1.822;2022-11-03T01:31:12;2.10;;;1.10;;
62543;SDS011;48597;49.030;1.822;2022-11-03T01:33:39;1.90;;;1.25;;
62543;SDS011;48597;49.030;1.822;2022-11-03T01:36:04;2.60;;;1.27;;
62543;SDS011;48597;49.030;1.822;2022-11-03T01:38:31;1.13;;;0.90;;
62543;SDS011;48597;49.030;1.822;2022-11-03T01:40:59;1.40;;;0.98;;
62543;SDS011;48597;49.030;1.822;2022-11-03T01:43:25;2.25;;;1.15;;
62543;SDS011;48597;49.030;1.822;2022-11-03T01:45:57;2.63;;;1.27;;
62543;SDS011;48597;49.030;1.822;2022-11-03T01:48:33;3.53;;;1.27;;
62543;SDS011;48597;49.030;1.822;2022-11-03T01:51:00;2.33;;;1.10;;
62543;SDS011;48597;49.030;1.822;2022-11-03T01:53:28;1.75;;;1.10;;
62543;SDS011;48597;49.030;1.822;2022-11-03T01:55:54;2.03;;;1.05;;
62543;SDS011;48597;49.030;1.822;2022-11-03T01:58:26;2.00;;;1.10;;
62543;SDS011;48597;49.030;1.822;2022-11-03T02:00:55;2.17;;;1.15;;
62543;SDS011;48597;49.030;1.822;2022-11-03T02:03:23;2.72;;;1.17;;
62543;SDS011;48597;49.030;1.822;2022-11-03T02:05:51;2.40;;;1.15;;
62543;SDS011;48597;49.030;1.822;2022-11-03T02:10:56;1.70;;;1.20;;
62543;SDS011;48597;49.030;1.822;2022-11-03T02:13:25;2.22;;;1.13;;
62543;SDS011;48597;49.030;1.822;2022-11-03T02:15:52;2.65;;;1.30;;
62543;SDS011;48597;49.030;1.822;2022-11-03T02:18:24;2.03;;;0.98;;
62543;SDS011;48597;49.030;1.822;2022-11-03T02:20:56;2.15;;;1.17;;
62543;SDS011;48597;49.030;1.822;2022-11-03T02:23:38;1.33;;;1.08;;
62543;SDS011;48597;49.030;1.822;2022-11-03T02:26:11;1.75;;;1.10;;
62543;SDS011;48597;49.030;1.822;2022-11-03T02:28:38;1.20;;;0.93;;
62543;SDS011;48597;49.030;1.822;2022-11-03T02:34:14;2.25;;;1.20;;
62543;SDS011;48597;49.030;1.822;2022-11-03T02:36:47;1.42;;;0.90;;
62543;SDS011;48597;49.030;1.822;2022-11-03T02:39:39;1.80;;;1.20;;
62543;SDS011;48597;49.030;1.822;2022-11-03T02:42:06;1.42;;;1.05;;
62543;SDS011;48597;49.030;1.822;2022-11-03T02:44:33;1.50;;;1.08;;
62543;SDS011;48597;49.030;1.822;2022-11-03T02:47:02;1.55;;;1.17;;
62543;SDS011;48597;49.030;1.822;2022-11-03T02:49:30;2.40;;;1.20;;
62543;SDS011;48597;49.030;1.822;2022-11-03T02:51:59;1.85;;;1.00;;
62543;SDS011;48597;49.030;1.822;2022-11-03T02:54:27;1.83;;;1.10;;
62543;SDS011;48597;49.030;1.822;2022-11-03T02:57:01;1.63;;;1.20;;
62543;SDS011;48597;49.030;1.822;2022-11-03T02:59:34;2.05;;;1.10;;
62543;SDS011;48597;49.030;1.822;2022-11-03T03:02:08;2.25;;;1.25;;
62543;SDS011;48597;49.030;1.822;2022-11-03T03:04:41;2.65;;;1.10;;
62543;SDS011;48597;49.030;1.822;2022-11-03T03:07:12;1.77;;;1.05;;
62543;SDS011;48597;49.030;1.822;2022-11-03T03:09:45;2.63;;;1.08;;
62543;SDS011;48597;49.030;1.822;2022-11-03T03:12:15;1.85;;;1.30;;
62543;SDS011;48597;49.030;1.822;2022-11-03T03:14:43;1.80;;;1.00;;
62543;SDS011;48597;49.030;1.822;2022-11-03T03:17:15;1.83;;;1.08;;
62543;SDS011;48597;49.030;1.822;2022-11-03T03:22:42;1.83;;;1.00;;
62543;SDS011;48597;49.030;1.822;2022-11-03T03:27:46;2.08;;;1.02;;
62543;SDS011;48597;49.030;1.822;2022-11-03T03:30:14;2.03;;;1.27;;
62543;SDS011;48597;49.030;1.822;2022-11-03T03:32:45;2.28;;;1.08;;
62543;SDS011;48597;49.030;1.822;2022-11-03T03:35:13;1.67;;;1.08;;
62543;SDS011;48597;49.030;1.822;2022-11-03T03:37:44;1.30;;;1.20;;
62543;SDS011;48597;49.030;1.822;2022-11-03T03:40:14;2.65;;;1.23;;
62543;SDS011;48597;49.030;1.822;2022-11-03T03:42:44;3.97;;;1.23;;
62543;SDS011;48597;49.030;1.822;2022-11-03T03:45:11;2.42;;;1.27;;
62543;SDS011;48597;49.030;1.822;2022-11-03T03:47:38;3.92;;;1.23;;
62543;SDS011;48597;49.030;1.822;2022-11-03T03:50:04;3.05;;;1.17;;
62543;SDS011;48597;49.030;1.822;2022-11-03T03:52:30;3.75;;;1.40;;
62543;SDS011;48597;49.030;1.822;2022-11-03T03:54:58;3.20;;;1.20;;
62543;SDS011;48597;49.030;1.822;2022-11-03T03:57:24;6.53;;;1.30;;
62543;SDS011;48597;49.030;1.822;2022-11-03T03:59:53;3.20;;;1.10;;
62543;SDS011;48597;49.030;1.822;2022-11-03T04:02:19;4.18;;;1.25;;
62543;SDS011;48597;49.030;1.822;2022-11-03T04:04:44;3.28;;;1.25;;
62543;SDS011;48597;49.030;1.822;2022-11-03T04:07:10;3.88;;;1.25;;
62543;SDS011;48597;49.030;1.822;2022-11-03T04:09:54;1.30;;;1.10;;
62543;SDS011;48597;49.030;1.822;2022-11-03T04:12:19;3.22;;;1.27;;
62543;SDS011;48597;49.030;1.822;2022-11-03T04:15:03;3.78;;;1.25;;
62543;SDS011;48597;49.030;1.822;2022-11-03T04:17:47;2.50;;;1.10;;
62543;SDS011;48597;49.030;1.822;2022-11-03T04:20:32;1.98;;;1.00;;
62543;SDS011;48597;49.030;1.822;2022-11-03T04:23:17;2.60;;;1.33;;
62543;SDS011;48597;49.030;1.822;2022-11-03T04:25:52;3.63;;;1.25;;
62543;SDS011;48597;49.030;1.822;2022-11-03T04:28:19;3.83;;;1.38;;
62543;SDS011;48597;49.030;1.822;2022-11-03T04:30:45;3.92;;;1.30;;
62543;SDS011;48597;49.030;1.822;2022-11-03T04:35:43;2.60;;;1.13;;
62543;SDS011;48597;49.030;1.822;2022-11-03T04:40:34;2.50;;;1.52;;
62543;SDS011;48597;49.030;1.822;2022-11-03T04:42:59;1.85;;;1.35;;
62543;SDS011;48597;49.030;1.822;2022-11-03T04:45:25;1.80;;;1.20;;
62543;SDS011;48597;49.030;1.822;2022-11-03T04:47:53;2.83;;;1.13;;
62543;SDS011;48597;49.030;1.822;2022-11-03T04:50:20;4.65;;;1.05;;
62543;SDS011;48597;49.030;1.822;2022-11-03T04:52:47;1.98;;;1.02;;
62543;SDS011;48597;49.030;1.822;2022-11-03T04:55:18;2.72;;;1.30;;
62543;SDS011;48597;49.030;1.822;2022-11-03T04:57:44;2.33;;;1.20;;
62543;SDS011;48597;49.030;1.822;2022-11-03T05:00:16;1.75;;;1.00;;
62543;SDS011;48597;49.030;1.822;2022-11-03T05:02:43;1.90;;;1.17;;
62543;SDS011;48597;49.030;1.822;2022-11-03T05:05:17;2.45;;;1.50;;
62543;SDS011;48597;49.030;1.822;2022-11-03T05:07:44;2.58;;;1.65;;
62543;SDS011;48597;49.030;1.822;2022-11-03T05:10:14;2.80;;;1.27;;
62543;SDS011;48597;49.030;1.822;2022-11-03T05:12:41;1.55;;;1.02;;
62543;SDS011;48597;49.030;1.822;2022-11-03T05:15:13;2.90;;;1.40;;
62543;SDS011;48597;49.030;1.822;2022-11-03T05:17:58;2.83;;;1.10;;
62543;SDS011;48597;49.030;1.822;2022-11-03T05:20:27;2.55;;;1.20;;
62543;SDS011;48597;49.030;1.822;2022-11-03T05:22:55;1.35;;;0.90;;
62543;SDS011;48597;49.030;1.822;2022-11-03T05:25:27;1.88;;;1.00;;
62543;SDS011;48597;49.030;1.822;2022-11-03T05:28:12;1.52;;;1.23;;
62543;SDS011;48597;49.030;1.822;2022-11-03T05:30:42;2.00;;;1.10;;
62543;SDS011;48597;49.030;1.822;2022-11-03T05:33:14;2.47;;;1.02;;
62543;SDS011;48597;49.030;1.822;2022-11-03T05:35:44;1.83;;;1.23;;
62543;SDS011;48597;49.030;1.822;2022-11-03T05:38:11;2.25;;;1.25;;
62543;SDS011;48597;49.030;1.822;2022-11-03T05:40:40;1.17;;;1.00;;
62543;SDS011;48597;49.030;1.822;2022-11-03T05:43:07;1.25;;;1.10;;
62543;SDS011;48597;49.030;1.822;2022-11-03T05:45:34;1.38;;;1.13;;
62543;SDS011;48597;49.030;1.822;2022-11-03T05:48:02;1.63;;;1.10;;
62543;SDS011;48597;49.030;1.822;2022-11-03T05:50:42;1.70;;;1.10;;
62543;SDS011;48597;49.030;1.822;2022-11-03T05:55:54;1.52;;;1.10;;
62543;SDS011;48597;49.030;1.822;2022-11-03T06:00:57;2.33;;;1.25;;
62543;SDS011;48597;49.030;1.822;2022-11-03T06:03:28;1.33;;;1.10;;
62543;SDS011;48597;49.030;1.822;2022-11-03T06:05:54;1.83;;;1.17;;
62543;SDS011;48597;49.030;1.822;2022-11-03T06:08:25;1.33;;;1.10;;
62543;SDS011;48597;49.030;1.822;2022-11-03T06:10:55;1.45;;;1.05;;
62543;SDS011;48597;49.030;1.822;2022-11-03T06:13:31;1.58;;;1.13;;
62543;SDS011;48597;49.030;1.822;2022-11-03T06:16:03;2.50;;;1.08;;
62543;SDS011;48597;49.030;1.822;2022-11-03T06:18:34;2.03;;;1.20;;
62543;SDS011;48597;49.030;1.822;2022-11-03T06:21:02;2.92;;;1.10;;
62543;SDS011;48597;49.030;1.822;2022-11-03T06:23:31;1.90;;;1.10;;
62543;SDS011;48597;49.030;1.822;2022-11-03T06:25:58;2.22;;;1.00;;
62543;SDS011;48597;49.030;1.822;2022-11-03T06:28:30;2.63;;;1.10;;
62543;SDS011;48597;49.030;1.822;2022-11-03T06:31:00;2.03;;;1.00;;
62543;SDS011;48597;49.030;1.822;2022-11-03T06:33:28;1.90;;;1.10;;
62543;SDS011;48597;49.030;1.822;2022-11-03T06:36:02;1.90;;;1.00;;
62543;SDS011;48597;49.030;1.822;2022-11-03T06:38:35;1.92;;;1.00;;
62543;SDS011;48597;49.030;1.822;2022-11-03T06:41:01;2.05;;;1.13;;
62543;SDS011;48597;49.030;1.822;2022-11-03T06:43:30;1.17;;;1.00;;
62543;SDS011;48597;49.030;1.822;2022-11-03T06:46:11;2.30;;;1.25;;
62543;SDS011;48597;49.030;1.822;2022-11-03T06:48:39;1.88;;;1.27;;
62543;SDS011;48597;49.030;1.822;2022-11-03T06:53:59;1.27;;;0.90;;
62543;SDS011;48597;49.030;1.822;2022-11-03T06:56:27;1.45;;;1.00;;
62543;SDS011;48597;49.030;1.822;2022-11-03T06:58:55;2.40;;;1.30;;
62543;SDS011;48597;49.030;1.822;2022-11-03T07:01:21;2.10;;;1.10;;
62543;SDS011;48597;49.030;1.822;2022-11-03T07:04:01;1.95;;;1.25;;
62543;SDS011;48597;49.030;1.822;2022-11-03T07:06:36;1.38;;;1.08;;
62543;SDS011;48597;49.030;1.822;2022-11-03T07:09:02;1.42;;;1.00;;
62543;SDS011;48597;49.030;1.822;2022-11-03T07:11:31;2.13;;;1.25;;
62543;SDS011;48597;49.030;1.822;2022-11-03T07:14:10;2.00;;;1.00;;
62543;SDS011;48597;49.030;1.822;2022-11-03T07:17:00;3.75;;;1.63;;
62543;SDS011;48597;49.030;1.822;2022-11-03T07:19:34;1.92;;;1.15;;
62543;SDS011;48597;49.030;1.822;2022-11-03T07:22:03;1.83;;;1.00;;
62543;SDS011;48597;49.030;1.822;2022-11-03T07:24:50;2.35;;;1.08;;
62543;SDS011;48597;49.030;1.822;2022-11-03T07:32:40;4.70;;;1.33;;
62543;SDS011;48597;49.030;1.822;2022-11-03T07:35:23;1.77;;;1.00;;
62543;SDS011;48597;49.030;1.822;2022-11-03T07:37:53;1.52;;;1.13;;
62543;SDS011;48597;49.030;1.822;2022-11-03T07:40:23;1.08;;;1.00;;
62543;SDS011;48597;49.030;1.822;2022-11-03T07:45:50;1.35;;;1.08;;
62543;SDS011;48597;49.030;1.822;2022-11-03T07:50:48;4.55;;;1.25;;
62543;SDS011;48597;49.030;1.822;2022-11-03T07:53:19;2.33;;;1.50;;
62543;SDS011;48597;49.030;1.822;2022-11-03T07:56:01;2.17;;;1.20;;
62543;SDS011;48597;49.030;1.822;2022-11-03T07:58:37;2.47;;;1.35;;
62543;SDS011;48597;49.030;1.822;2022-11-03T08:03:50;1.60;;;1.08;;
62543;SDS011;48597;49.030;1.822;2022-11-03T08:06:18;2.38;;;1.20;;
62543;SDS011;48597;49.030;1.822;2022-11-03T08:08:43;1.95;;;1.10;;
62543;SDS011;48597;49.030;1.822;2022-11-03T08:11:09;1.65;;;1.10;;
62543;SDS011;48597;49.030;1.822;2022-11-03T08:13:34;2.72;;;1.17;;
62543;SDS011;48597;49.030;1.822;2022-11-03T08:16:00;1.75;;;1.13;;
62543;SDS011;48597;49.030;1.822;2022-11-03T08:18:26;1.80;;;1.10;;
62543;SDS011;48597;49.030;1.822;2022-11-03T08:20:51;4.28;;;1.40;;
62543;SDS011;48597;49.030;1.822;2022-11-03T08:23:16;3.22;;;1.10;;
62543;SDS011;48597;49.030;1.822;2022-11-03T08:25:42;1.50;;;1.02;;
62543;SDS011;48597;49.030;1.822;2022-11-03T08:28:08;1.23;;;1.00;;
62543;SDS011;48597;49.030;1.822;2022-11-03T08:30:33;2.60;;;1.00;;
62543;SDS011;48597;49.030;1.822;2022-11-03T08:32:59;1.60;;;1.00;;
62543;SDS011;48597;49.030;1.822;2022-11-03T08:35:24;2.17;;;1.25;;
62543;SDS011;48597;49.030;1.822;2022-11-03T08:37:50;1.85;;;1.30;;
62543;SDS011;48597;49.030;1.822;2022-11-03T08:40:15;1.88;;;1.05;;
62543;SDS011;48597;49.030;1.822;2022-11-03T08:42:41;1.20;;;0.98;;
62543;SDS011;48597;49.030;1.822;2022-11-03T08:45:06;2.45;;;1.17;;
62543;SDS011;48597;49.030;1.822;2022-11-03T08:47:32;1.45;;;1.00;;
62543;SDS011;48597;49.030;1.822;2022-11-03T08:49:57;1.92;;;1.15;;
62543;SDS011;48597;49.030;1.822;2022-11-03T08:52:22;1.38;;;1.10;;
62543;SDS011;48597;49.030;1.822;2022-11-03T08:54:48;1.33;;;1.00;;
62543;SDS011;48597;49.030;1.822;2022-11-03T08:57:14;2.30;;;1.00;;
62543;SDS011;48597;49.030;1.822;2022-11-03T08:59:40;2.45;;;1.25;;
62543;SDS011;48597;49.030;1.822;2022-11-03T09:02:06;2.05;;;1.20;;
62543;SDS011;48597;49.030;1.822;2022-11-03T09:04:31;1.30;;;1.20;;
62543;SDS011;48597;49.030;1.822;2022-11-03T09:06:56;1.95;;;1.00;;
62543;SDS011;48597;49.030;1.822;2022-11-03T09:09:22;1.83;;;1.30;;
62543;SDS011;48597;49.030;1.822;2022-11-03T09:11:47;1.40;;;1.13;;
62543;SDS011;48597;49.030;1.822;2022-11-03T09:14:13;2.13;;;1.38;;
62543;SDS011;48597;49.030;1.822;2022-11-03T09:16:38;1.23;;;1.08;;
62543;SDS011;48597;49.030;1.822;2022-11-03T09:19:04;1.83;;;1.33;;
62543;SDS011;48597;49.030;1.822;2022-11-03T09:21:29;3.63;;;1.30;;
62543;SDS011;48597;49.030;1.822;2022-11-03T09:23:55;1.25;;;1.15;;
62543;SDS011;48597;49.030;1.822;2022-11-03T09:26:23;2.10;;;1.20;;
62543;SDS011;48597;49.030;1.822;2022-11-03T09:28:49;2.00;;;1.35;;
62543;SDS011;48597;49.030;1.822;2022-11-03T09:31:14;2.20;;;1.20;;
62543;SDS011;48597;49.030;1.822;2022-11-03T09:33:40;1.60;;;1.10;;
62543;SDS011;48597;49.030;1.822;2022-11-03T09:36:05;1.70;;;1.25;;
62543;SDS011;48597;49.030;1.822;2022-11-03T09:38:31;1.38;;;1.10;;
62543;SDS011;48597;49.030;1.822;2022-11-03T09:40:56;2.00;;;1.30;;
62543;SDS011;48597;49.030;1.822;2022-11-03T09:43:21;1.88;;;1.30;;
62543;SDS011;48597;49.030;1.822;2022-11-03T09:45:47;2.00;;;1.10;;
62543;SDS011;48597;49.030;1.822;2022-11-03T09:48:12;1.63;;;1.10;;
62543;SDS011;48597;49.030;1.822;2022-11-03T09:50:38;1.20;;;1.10;;
62543;SDS011;48597;49.030;1.822;2022-11-03T09:53:04;1.98;;;1.27;;
62543;SDS011;48597;49.030;1.822;2022-11-03T09:55:30;1.33;;;1.10;;
62543;SDS011;48597;49.030;1.822;2022-11-03T09:58:00;1.30;;;1.00;;
62543;SDS011;48597;49.030;1.822;2022-11-03T10:00:33;1.98;;;1.15;;
62543;SDS011;48597;49.030;1.822;2022-11-03T10:02:58;1.70;;;1.30;;
62543;SDS011;48597;49.030;1.822;2022-11-03T10:05:24;1.90;;;1.23;;
62543;SDS011;48597;49.030;1.822;2022-11-03T10:07:51;2.40;;;1.20;;
62543;SDS011;48597;49.030;1.822;2022-11-03T10:10:22;2.05;;;1.20;;
62543;SDS011;48597;49.030;1.822;2022-11-03T10:12:48;1.83;;;1.27;;
62543;SDS011;48597;49.030;1.822;2022-11-03T10:15:17;1.70;;;1.30;;
62543;SDS011;48597;49.030;1.822;2022-11-03T10:17:44;2.00;;;1.00;;
62543;SDS011;48597;49.030;1.822;2022-11-03T10:20:15;1.77;;;1.00;;
62543;SDS011;48597;49.030;1.822;2022-11-03T10:28:10;1.20;;;1.10;;
62543;SDS011;48597;49.030;1.822;2022-11-03T10:30:49;1.88;;;1.10;;
62543;SDS011;48597;49.030;1.822;2022-11-03T10:33:49;1.77;;;1.10;;
62543;SDS011;48597;49.030;1.822;2022-11-03T10:38:42;2.33;;;1.20;;
62543;SDS011;48597;49.030;1.822;2022-11-03T10:43:59;1.85;;;1.10;;
62543;SDS011;48597;49.030;1.822;2022-11-03T10:46:29;1.10;;;1.00;;
62543;SDS011;48597;49.030;1.822;2022-11-03T10:49:07;1.73;;;1.20;;
62543;SDS011;48597;49.030;1.822;2022-11-03T10:51:38;1.20;;;1.00;;
62543;SDS011;48597;49.030;1.822;2022-11-03T10:54:07;1.08;;;0.98;;
62543;SDS011;48597;49.030;1.822;2022-11-03T10:56:36;4.07;;;1.58;;
62543;SDS011;48597;49.030;1.822;2022-11-03T10:59:02;3.92;;;1.40;;
62543;SDS011;48597;49.030;1.822;2022-11-03T11:01:27;2.08;;;1.02;;
62543;SDS011;48597;49.030;1.822;2022-11-03T11:03:53;1.48;;;1.00;;
62543;SDS011;48597;49.030;1.822;2022-11-03T11:06:23;2.60;;;1.23;;
62543;SDS011;48597;49.030;1.822;2022-11-03T11:08:51;2.17;;;1.20;;
62543;SDS011;48597;49.030;1.822;2022-11-03T11:11:20;4.63;;;1.10;;
62543;SDS011;48597;49.030;1.822;2022-11-03T11:16:53;3.10;;;1.00;;
62543;SDS011;48597;49.030;1.822;2022-11-03T11:19:21;3.53;;;1.10;;
62543;SDS011;48597;49.030;1.822;2022-11-03T11:21:49;4.25;;;1.27;;
62543;SDS011;48597;49.030;1.822;2022-11-03T11:35:10;4.03;;;1.23;;
62543;SDS011;48597;49.030;1.822;2022-11-03T11:37:42;2.67;;;1.20;;
62543;SDS011;48597;49.030;1.822;2022-11-03T11:40:10;5.40;;;1.77;;
62543;SDS011;48597;49.030;1.822;2022-11-03T11:48:32;4.03;;;1.42;;
62543;SDS011;48597;49.030;1.822;2022-11-03T11:50:58;3.03;;;1.35;;
62543;SDS011;48597;49.030;1.822;2022-11-03T11:53:24;2.40;;;1.10;;
62543;SDS011;48597;49.030;1.822;2022-11-03T11:55:58;3.38;;;1.40;;
62543;SDS011;48597;49.030;1.822;2022-11-03T12:03:46;4.32;;;1.70;;
62543;SDS011;48597;49.030;1.822;2022-11-03T12:06:12;3.97;;;1.95;;
62543;SDS011;48597;49.030;1.822;2022-11-03T12:08:38;4.63;;;2.08;;
62543;SDS011;48597;49.030;1.822;2022-11-03T12:11:05;4.47;;;2.13;;
62543;SDS011;48597;49.030;1.822;2022-11-03T12:13:45;5.00;;;2.00;;
62543;SDS011;48597;49.030;1.822;2022-11-03T12:16:32;4.45;;;1.92;;
62543;SDS011;48597;49.030;1.822;2022-11-03T12:21:56;4.32;;;2.10;;
62543;SDS011;48597;49.030;1.822;2022-11-03T12:26:56;4.43;;;2.80;;
62543;SDS011;48597;49.030;1.822;2022-11-03T12:29:23;8.13;;;3.03;;
62543;SDS011;48597;49.030;1.822;2022-11-03T12:31:48;7.30;;;2.97;;
62543;SDS011;48597;49.030;1.822;2022-11-03T12:34:14;8.95;;;3.80;;
62543;SDS011;48597;49.030;1.822;2022-11-03T12:36:40;7.95;;;3.42;;
62543;SDS011;48597;49.030;1.822;2022-11-03T12:39:07;10.13;;;3.22;;
62543;SDS011;48597;49.030;1.822;2022-11-03T12:41:32;9.68;;;3.15;;
62543;SDS011;48597;49.030;1.822;2022-11-03T12:43:57;6.85;;;3.72;;
62543;SDS011;48597;49.030;1.822;2022-11-03T12:46:23;8.60;;;3.30;;
62543;SDS011;48597;49.030;1.822;2022-11-03T12:48:48;9.15;;;3.35;;
62543;SDS011;48597;49.030;1.822;2022-11-03T12:51:15;7.72;;;3.55;;
62543;SDS011;48597;49.030;1.822;2022-11-03T12:53:41;9.50;;;3.95;;
62543;SDS011;48597;49.030;1.822;2022-11-03T12:56:07;7.80;;;3.20;;
62543;SDS011;48597;49.030;1.822;2022-11-03T12:58:34;9.93;;;3.40;;
62543;SDS011;48597;49.030;1.822;2022-11-03T13:00:59;10.85;;;3.30;;
62543;SDS011;48597;49.030;1.822;2022-11-03T13:03:24;7.97;;;3.45;;
62543;SDS011;48597;49.030;1.822;2022-11-03T13:05:50;8.32;;;3.40;;
62543;SDS011;48597;49.030;1.822;2022-11-03T13:08:15;7.15;;;3.42;;
62543;SDS011;48597;49.030;1.822;2022-11-03T13:10:41;9.60;;;4.03;;
62543;SDS011;48597;49.030;1.822;2022-11-03T13:13:06;7.50;;;3.35;;
62543;SDS011;48597;49.030;1.822;2022-11-03T13:15:31;7.03;;;3.20;;
62543;SDS011;48597;49.030;1.822;2022-11-03T13:17:57;7.68;;;3.10;;
62543;SDS011;48597;49.030;1.822;2022-11-03T13:20:22;9.05;;;3.40;;
62543;SDS011;48597;49.030;1.822;2022-11-03T13:22:48;7.55;;;3.50;;
62543;SDS011;48597;49.030;1.822;2022-11-03T13:25:14;7.95;;;3.15;;
62543;SDS011;48597;49.030;1.822;2022-11-03T13:27:39;9.43;;;3.30;;
62543;SDS011;48597;49.030;1.822;2022-11-03T13:30:05;4.75;;;2.92;;
62543;SDS011;48597;49.030;1.822;2022-11-03T13:32:31;7.82;;;3.17;;
62543;SDS011;48597;49.030;1.822;2022-11-03T13:34:57;8.02;;;3.60;;
62543;SDS011;48597;49.030;1.822;2022-11-03T13:37:22;7.65;;;3.22;;
62543;SDS011;48597;49.030;1.822;2022-11-03T13:39:47;6.88;;;2.80;;
62543;SDS011;48597;49.030;1.822;2022-11-03T13:42:13;6.90;;;3.13;;
62543;SDS011;48597;49.030;1.822;2022-11-03T13:44:38;7.75;;;2.90;;
62543;SDS011;48597;49.030;1.822;2022-11-03T13:47:03;5.97;;;3.05;;
62543;SDS011;48597;49.030;1.822;2022-11-03T13:49:29;7.97;;;3.08;;
62543;SDS011;48597;49.030;1.822;2022-11-03T13:51:54;5.72;;;2.55;;
62543;SDS011;48597;49.030;1.822;2022-11-03T13:54:20;6.05;;;2.67;;
62543;SDS011;48597;49.030;1.822;2022-11-03T13:56:45;7.47;;;2.90;;
62543;SDS011;48597;49.030;1.822;2022-11-03T13:59:10;6.88;;;2.80;;
62543;SDS011;48597;49.030;1.822;2022-11-03T14:01:36;6.55;;;2.67;;
62543;SDS011;48597;49.030;1.822;2022-11-03T14:04:02;7.35;;;2.95;;
62543;SDS011;48597;49.030;1.822;2022-11-03T14:06:28;8.13;;;2.60;;
62543;SDS011;48597;49.030;1.822;2022-11-03T14:08:53;4.82;;;2.90;;
62543;SDS011;48597;49.030;1.822;2022-11-03T14:11:18;5.13;;;2.55;;
62543;SDS011;48597;49.030;1.822;2022-11-03T14:14:02;8.65;;;3.13;;
62543;SDS011;48597;49.030;1.822;2022-11-03T14:16:28;4.57;;;2.80;;
62543;SDS011;48597;49.030;1.822;2022-11-03T14:18:54;4.60;;;2.53;;
62543;SDS011;48597;49.030;1.822;2022-11-03T14:21:20;5.47;;;2.55;;
62543;SDS011;48597;49.030;1.822;2022-11-03T14:23:45;7.40;;;3.00;;
62543;SDS011;48597;49.030;1.822;2022-11-03T14:26:10;5.43;;;2.50;;
62543;SDS011;48597;49.030;1.822;2022-11-03T14:28:35;6.57;;;2.85;;
62543;SDS011;48597;49.030;1.822;2022-11-03T14:31:01;6.18;;;2.65;;
62543;SDS011;48597;49.030;1.822;2022-11-03T14:33:29;7.10;;;2.60;;
62543;SDS011;48597;49.030;1.822;2022-11-03T14:35:54;4.03;;;2.65;;
62543;SDS011;48597;49.030;1.822;2022-11-03T14:38:19;4.53;;;2.13;;
62543;SDS011;48597;49.030;1.822;2022-11-03T14:40:45;6.07;;;2.67;;
62543;SDS011;48597;49.030;1.822;2022-11-03T14:43:29;5.40;;;2.42;;
62543;SDS011;48597;49.030;1.822;2022-11-03T14:45:54;5.82;;;2.78;;
62543;SDS011;48597;49.030;1.822;2022-11-03T14:48:19;5.70;;;2.50;;
62543;SDS011;48597;49.030;1.822;2022-11-03T14:50:45;4.63;;;2.40;;
62543;SDS011;48597;49.030;1.822;2022-11-03T14:53:10;3.15;;;2.28;;
62543;SDS011;48597;49.030;1.822;2022-11-03T14:55:35;7.72;;;2.60;;
62543;SDS011;48597;49.030;1.822;2022-11-03T14:58:01;5.32;;;2.15;;
62543;SDS011;48597;49.030;1.822;2022-11-03T15:00:26;3.00;;;1.77;;
62543;SDS011;48597;49.030;1.822;2022-11-03T15:02:51;3.70;;;2.28;;
62543;SDS011;48597;49.030;1.822;2022-11-03T15:05:17;6.60;;;2.55;;
62543;SDS011;48597;49.030;1.822;2022-11-03T15:08:01;4.72;;;2.13;;
62543;SDS011;48597;49.030;1.822;2022-11-03T15:10:26;3.38;;;2.20;;
62543;SDS011;48597;49.030;1.822;2022-11-03T15:12:51;2.70;;;1.92;;
62543;SDS011;48597;49.030;1.822;2022-11-03T15:15:17;2.97;;;1.95;;
62543;SDS011;48597;49.030;1.822;2022-11-03T15:17:42;3.90;;;2.00;;
62543;SDS011;48597;49.030;1.822;2022-11-03T15:20:08;3.67;;;2.10;;
62543;SDS011;48597;49.030;1.822;2022-11-03T15:22:33;2.40;;;1.90;;
62543;SDS011;48597;49.030;1.822;2022-11-03T15:24:59;5.40;;;2.00;;
62543;SDS011;48597;49.030;1.822;2022-11-03T15:27:24;2.40;;;1.70;;
62543;SDS011;48597;49.030;1.822;2022-11-03T15:29:49;3.22;;;1.75;;
62543;SDS011;48597;49.030;1.822;2022-11-03T15:32:15;3.33;;;1.90;;
62543;SDS011;48597;49.030;1.822;2022-11-03T15:34:40;2.72;;;1.60;;
62543;SDS011;48597;49.030;1.822;2022-11-03T15:37:05;2.33;;;1.58;;
62543;SDS011;48597;49.030;1.822;2022-11-03T15:39:31;3.15;;;1.50;;
62543;SDS011;48597;49.030;1.822;2022-11-03T15:41:56;3.55;;;1.60;;
62543;SDS011;48597;49.030;1.822;2022-11-03T15:44:24;4.18;;;1.70;;
62543;SDS011;48597;49.030;1.822;2022-11-03T15:46:49;2.80;;;1.50;;
62543;SDS011;48597;49.030;1.822;2022-11-03T15:49:15;3.05;;;1.60;;
62543;SDS011;48597;49.030;1.822;2022-11-03T15:51:40;3.10;;;1.50;;
62543;SDS011;48597;49.030;1.822;2022-11-03T15:54:05;2.13;;;1.45;;
62543;SDS011;48597;49.030;1.822;2022-11-03T15:56:31;2.55;;;1.50;;
62543;SDS011;48597;49.030;1.822;2022-11-03T15:58:56;1.80;;;1.48;;
62543;SDS011;48597;49.030;1.822;2022-11-03T16:01:21;3.60;;;1.63;;
62543;SDS011;48597;49.030;1.822;2022-11-03T16:03:47;2.60;;;1.50;;
62543;SDS011;48597;49.030;1.822;2022-11-03T16:06:12;2.53;;;1.60;;
62543;SDS011;48597;49.030;1.822;2022-11-03T16:08:38;2.25;;;1.40;;
62543;SDS011;48597;49.030;1.822;2022-11-03T16:11:03;2.38;;;1.50;;
62543;SDS011;48597;49.030;1.822;2022-11-03T16:13:28;1.90;;;1.45;;
62543;SDS011;48597;49.030;1.822;2022-11-03T16:15:54;1.50;;;1.40;;
62543;SDS011;48597;49.030;1.822;2022-11-03T16:18:19;3.05;;;1.40;;